createdAt,value
2023-05-17T00:01:46.762Z,1.30
2023-05-17T00:04:14.152Z,1.38
2023-05-17T00:06:41.446Z,1.15
2023-05-17T00:09:08.859Z,1.45
2023-05-17T00:11:36.109Z,1.30
2023-05-17T00:14:03.304Z,1.45
2023-05-17T00:16:30.491Z,1.40
2023-05-17T00:18:57.785Z,1.80
2023-05-17T00:21:25.048Z,1.30
2023-05-17T00:23:52.344Z,1.30
2023-05-17T00:26:20.150Z,1.73
2023-05-17T00:28:47.354Z,2.03
2023-05-17T00:31:14.534Z,1.40
2023-05-17T00:33:41.729Z,1.40
2023-05-17T00:36:09.043Z,1.17
2023-05-17T00:38:36.241Z,1.20
2023-05-17T00:41:03.454Z,2.45
2023-05-17T00:43:30.946Z,1.40
2023-05-17T00:45:58.518Z,1.40
2023-05-17T00:48:26.394Z,1.23
2023-05-17T00:50:54.152Z,1.27
2023-05-17T00:53:21.408Z,1.73
2023-05-17T00:55:49.059Z,1.27
2023-05-17T00:58:16.672Z,1.23
2023-05-17T01:00:44.233Z,1.40
2023-05-17T01:03:11.456Z,1.70
2023-05-17T01:05:39.253Z,1.33
2023-05-17T01:08:06.486Z,1.60
2023-05-17T01:10:37.216Z,1.60
2023-05-17T01:13:11.198Z,1.27
2023-05-17T01:15:42.265Z,1.67
2023-05-17T01:18:22.604Z,1.30
2023-05-17T01:20:51.620Z,1.92
2023-05-17T01:23:18.790Z,1.83
2023-05-17T01:25:52.935Z,1.60
2023-05-17T01:28:22.008Z,1.30
2023-05-17T01:30:50.904Z,1.60
2023-05-17T01:33:19.096Z,1.42
2023-05-17T01:35:46.307Z,1.35
2023-05-17T01:38:13.532Z,1.30
2023-05-17T01:40:44.129Z,1.50
2023-05-17T01:43:16.858Z,1.83
2023-05-17T01:48:32.423Z,1.70
2023-05-17T01:50:59.891Z,2.03
2023-05-17T01:53:38.656Z,1.60
2023-05-17T01:56:09.463Z,1.48
2023-05-17T01:58:40.732Z,1.58
2023-05-17T02:01:09.277Z,1.38
2023-05-17T02:03:36.592Z,1.40
2023-05-17T02:06:03.812Z,1.70
2023-05-17T02:08:31.019Z,1.63
2023-05-17T02:10:58.215Z,1.40
2023-05-17T02:13:25.559Z,1.67
2023-05-17T02:15:52.740Z,1.67
2023-05-17T02:18:22.017Z,1.38
2023-05-17T02:20:49.340Z,1.50
2023-05-17T02:23:16.702Z,1.60
2023-05-17T02:25:43.938Z,1.55
2023-05-17T02:28:11.218Z,1.67
2023-05-17T02:30:41.494Z,1.70
2023-05-17T02:33:09.770Z,1.70
2023-05-17T02:35:37.129Z,2.03
2023-05-17T02:38:04.307Z,1.63
2023-05-17T02:40:31.485Z,1.90
2023-05-17T02:42:58.715Z,1.70
2023-05-17T02:45:26.242Z,1.70
2023-05-17T02:47:53.558Z,1.73
2023-05-17T02:50:20.905Z,1.50
2023-05-17T02:52:48.172Z,1.95
2023-05-17T02:55:15.530Z,1.75
2023-05-17T02:57:42.713Z,1.70
2023-05-17T03:00:10.102Z,2.03
2023-05-17T03:02:37.591Z,1.75
2023-05-17T03:05:05.051Z,2.13
2023-05-17T03:07:32.305Z,1.80
2023-05-17T03:09:59.523Z,1.70
2023-05-17T03:12:28.364Z,1.95
2023-05-17T03:14:56.700Z,1.92
2023-05-17T03:17:23.911Z,1.75
2023-05-17T03:19:51.583Z,2.70
2023-05-17T03:22:19.755Z,1.70
2023-05-17T03:24:47.524Z,1.70
2023-05-17T03:27:14.726Z,1.40
2023-05-17T03:29:42.009Z,1.90
2023-05-17T03:32:09.261Z,1.45
2023-05-17T03:34:36.452Z,3.78
2023-05-17T03:37:03.635Z,21.42
2023-05-17T03:39:31.330Z,2.70
2023-05-17T03:41:58.568Z,2.10
2023-05-17T03:44:25.773Z,1.67
2023-05-17T03:46:52.923Z,1.65
2023-05-17T03:49:20.993Z,1.70
2023-05-17T03:51:48.166Z,2.20
2023-05-17T03:54:15.485Z,1.85
2023-05-17T03:56:47.004Z,2.05
2023-05-17T03:59:14.647Z,1.90
2023-05-17T04:01:41.814Z,1.60
2023-05-17T04:04:08.993Z,1.70
2023-05-17T04:06:36.258Z,1.98
2023-05-17T04:09:04.638Z,1.50
2023-05-17T04:11:33.121Z,1.48
2023-05-17T04:14:00.413Z,1.90
2023-05-17T04:16:27.661Z,2.10
2023-05-17T04:18:54.932Z,1.98
2023-05-17T04:21:22.283Z,2.03
2023-05-17T04:23:49.510Z,1.75
2023-05-17T04:26:16.702Z,2.10
2023-05-17T04:28:43.929Z,1.65
2023-05-17T04:31:11.360Z,2.60
2023-05-17T04:33:38.583Z,2.40
2023-05-17T04:36:05.968Z,2.65
2023-05-17T04:38:33.157Z,3.08
2023-05-17T04:41:04.676Z,2.80
2023-05-17T04:43:32.749Z,2.50
2023-05-17T04:46:00.518Z,2.30
2023-05-17T04:48:28.184Z,2.55
2023-05-17T04:50:55.521Z,2.70
2023-05-17T04:53:22.792Z,2.25
2023-05-17T04:55:50.032Z,14.15
2023-05-17T04:58:17.212Z,16.98
2023-05-17T05:00:44.425Z,9.40
2023-05-17T05:03:11.757Z,3.38
2023-05-17T05:05:39.006Z,2.05
2023-05-17T05:08:06.229Z,2.20
2023-05-17T05:10:33.428Z,1.52
2023-05-17T05:13:00.710Z,2.38
2023-05-17T05:15:28.122Z,1.80
2023-05-17T05:17:55.558Z,1.92
2023-05-17T05:20:22.790Z,2.05
2023-05-17T05:22:50.244Z,2.60
2023-05-17T05:25:17.480Z,2.33
2023-05-17T05:27:44.666Z,2.20
2023-05-17T05:30:12.155Z,2.78
2023-05-17T05:32:39.552Z,2.80
2023-05-17T05:35:07.713Z,2.58
2023-05-17T05:37:35.885Z,2.70
2023-05-17T05:40:03.349Z,2.95
2023-05-17T05:42:30.601Z,2.72
2023-05-17T05:44:57.817Z,3.33
2023-05-17T05:47:24.999Z,2.85
2023-05-17T05:49:52.283Z,3.40
2023-05-17T05:52:19.516Z,3.30
2023-05-17T05:54:46.787Z,3.10
2023-05-17T05:57:14.046Z,3.15
2023-05-17T05:59:41.295Z,2.90
2023-05-17T06:02:08.626Z,3.25
2023-05-17T06:04:45.141Z,2.33
2023-05-17T06:07:13.752Z,5.22
2023-05-17T06:09:41.364Z,3.85
2023-05-17T06:12:08.804Z,2.70
2023-05-17T06:14:37.583Z,2.42
2023-05-17T06:17:04.991Z,2.58
2023-05-17T06:19:32.848Z,4.20
2023-05-17T06:22:00.217Z,4.45
2023-05-17T06:24:27.387Z,4.70
2023-05-17T06:26:54.685Z,5.55
2023-05-17T06:29:21.989Z,5.35
2023-05-17T06:31:49.199Z,3.70
2023-05-17T06:34:16.463Z,5.03
2023-05-17T06:36:43.711Z,4.05
2023-05-17T06:39:11.181Z,3.90
2023-05-17T06:41:38.459Z,3.42
2023-05-17T06:44:05.860Z,3.97
2023-05-17T06:46:33.022Z,4.90
2023-05-17T06:49:00.693Z,4.15
2023-05-17T06:51:27.949Z,4.07
2023-05-17T06:53:55.204Z,4.07
2023-05-17T06:56:22.623Z,3.80
2023-05-17T06:58:49.825Z,3.05
2023-05-17T07:01:17.096Z,4.28
2023-05-17T07:03:44.365Z,3.03
2023-05-17T07:06:11.704Z,3.28
2023-05-17T07:08:40.375Z,3.67
2023-05-17T07:11:07.609Z,4.65
2023-05-17T07:13:34.845Z,3.45
2023-05-17T07:16:02.072Z,3.85
2023-05-17T07:18:29.368Z,4.95
2023-05-17T07:20:56.575Z,4.60
2023-05-17T07:23:25.747Z,3.70
2023-05-17T07:25:52.924Z,4.05
2023-05-17T07:28:20.259Z,3.33
2023-05-17T07:30:47.485Z,3.13
2023-05-17T07:33:21.771Z,3.50
2023-05-17T07:35:49.017Z,4.53
2023-05-17T07:38:16.224Z,2.42
2023-05-17T07:40:46.177Z,3.80
2023-05-17T07:43:13.385Z,3.13
2023-05-17T07:45:40.544Z,3.92
2023-05-17T07:48:07.884Z,3.80
2023-05-17T07:50:35.272Z,4.10
2023-05-17T07:53:02.646Z,2.92
2023-05-17T07:55:29.905Z,2.72
2023-05-17T07:57:57.329Z,3.20
2023-05-17T08:00:24.802Z,2.90
2023-05-17T08:02:52.109Z,3.13
2023-05-17T08:05:19.425Z,3.40
2023-05-17T08:07:46.696Z,3.75
2023-05-17T08:10:13.919Z,3.00
2023-05-17T08:12:41.127Z,3.70
2023-05-17T08:15:08.442Z,3.40
2023-05-17T08:17:36.187Z,3.55
2023-05-17T08:20:03.528Z,3.10
2023-05-17T08:22:30.782Z,2.83
2023-05-17T08:24:57.993Z,2.63
2023-05-17T08:27:27.107Z,2.70
2023-05-17T08:29:55.551Z,3.38
2023-05-17T08:32:23.708Z,2.83
2023-05-17T08:34:51.044Z,3.05
2023-05-17T08:37:18.958Z,3.20
2023-05-17T08:39:46.339Z,2.85
2023-05-17T08:42:13.697Z,3.10
2023-05-17T08:44:41.139Z,3.13
2023-05-17T08:47:12.038Z,3.00
2023-05-17T08:49:40.466Z,3.33
2023-05-17T08:52:10.377Z,3.42
2023-05-17T08:54:38.024Z,3.10
2023-05-17T08:57:06.751Z,2.85
2023-05-17T08:59:35.313Z,2.88
2023-05-17T09:02:02.547Z,2.90
2023-05-17T09:04:31.368Z,3.05
2023-05-17T09:06:59.028Z,3.25
2023-05-17T09:09:27.474Z,2.90
2023-05-17T09:11:55.199Z,3.03
2023-05-17T09:14:22.416Z,2.88
2023-05-17T09:16:57.366Z,3.38
2023-05-17T09:19:24.659Z,2.90
2023-05-17T09:21:52.164Z,2.85
2023-05-17T09:24:20.356Z,2.97
2023-05-17T09:26:47.491Z,2.63
2023-05-17T09:29:15.866Z,2.85
2023-05-17T09:31:43.688Z,3.15
2023-05-17T09:34:11.224Z,2.90
2023-05-17T09:36:39.451Z,3.22
2023-05-17T09:39:10.516Z,3.22
2023-05-17T09:41:48.346Z,3.55
2023-05-17T09:44:16.402Z,3.28
2023-05-17T09:46:45.578Z,3.10
2023-05-17T09:49:13.970Z,2.83
2023-05-17T09:51:42.694Z,2.83
2023-05-17T09:54:10.522Z,2.42
2023-05-17T09:56:37.819Z,3.58
2023-05-17T09:59:05.680Z,3.10
2023-05-17T10:01:32.884Z,3.38
2023-05-17T10:04:03.917Z,3.67
2023-05-17T10:06:44.219Z,3.53
2023-05-17T10:09:14.313Z,3.90
2023-05-17T10:11:44.002Z,3.60
2023-05-17T10:14:34.774Z,4.30
2023-05-17T10:17:03.414Z,3.63
2023-05-17T10:19:31.559Z,3.58
2023-05-17T10:22:08.347Z,3.40
2023-05-17T10:24:49.139Z,3.30
2023-05-17T10:27:17.095Z,2.70
2023-05-17T10:29:46.557Z,3.50
2023-05-17T10:32:17.389Z,3.55
2023-05-17T10:34:47.446Z,4.55
2023-05-17T10:37:18.652Z,3.65
2023-05-17T10:39:46.882Z,3.90
2023-05-17T10:42:15.356Z,3.50
2023-05-17T10:44:43.001Z,3.38
2023-05-17T10:47:11.774Z,3.10
2023-05-17T10:49:47.563Z,3.22
2023-05-17T10:52:16.607Z,2.90
2023-05-17T10:54:44.651Z,3.47
2023-05-17T10:57:22.252Z,3.20
2023-05-17T11:00:04.973Z,3.20
2023-05-17T11:02:32.449Z,2.90
2023-05-17T11:05:00.698Z,2.75
2023-05-17T11:07:32.042Z,3.17
2023-05-17T11:10:08.457Z,2.70
2023-05-17T11:12:40.508Z,3.20
2023-05-17T11:15:17.648Z,2.45
2023-05-17T11:17:46.508Z,2.80
2023-05-17T11:20:17.407Z,2.55
2023-05-17T11:22:58.812Z,3.10
2023-05-17T11:25:28.828Z,2.92
2023-05-17T11:27:56.258Z,2.80
2023-05-17T11:30:24.563Z,2.10
2023-05-17T11:33:02.067Z,2.65
2023-05-17T11:35:39.206Z,2.30
2023-05-17T11:38:17.892Z,2.78
2023-05-17T11:40:46.252Z,2.42
2023-05-17T11:43:16.555Z,2.78
2023-05-17T11:45:44.643Z,2.75
2023-05-17T11:48:13.141Z,2.88
2023-05-17T11:50:41.017Z,2.67
2023-05-17T11:53:10.038Z,2.63
2023-05-17T11:55:41.030Z,2.95
2023-05-17T11:58:09.335Z,3.33
2023-05-17T12:00:37.638Z,2.78
2023-05-17T12:03:21.097Z,3.05
2023-05-17T12:05:49.352Z,2.60
2023-05-17T12:08:18.061Z,2.45
2023-05-17T12:10:49.979Z,3.00
2023-05-17T12:13:17.336Z,5.67
2023-05-17T12:15:45.945Z,3.25
2023-05-17T12:18:13.379Z,3.35
2023-05-17T12:20:53.309Z,3.40
2023-05-17T12:23:26.669Z,2.97
2023-05-17T12:26:02.260Z,3.30
2023-05-17T12:28:29.524Z,3.50
2023-05-17T12:30:58.786Z,3.10
2023-05-17T12:33:26.833Z,3.45
2023-05-17T12:35:54.220Z,3.80
2023-05-17T12:38:21.547Z,3.70
2023-05-17T12:40:48.885Z,3.65
2023-05-17T12:43:16.149Z,4.35
2023-05-17T12:45:43.392Z,2.33
2023-05-17T12:48:10.822Z,3.10
2023-05-17T12:50:39.309Z,2.70
2023-05-17T12:53:09.499Z,2.90
2023-05-17T12:55:39.861Z,2.97
2023-05-17T12:58:06.984Z,2.33
2023-05-17T13:00:34.328Z,2.72
2023-05-17T13:03:02.036Z,2.92
2023-05-17T13:05:29.407Z,3.60
2023-05-17T13:07:56.665Z,3.65
2023-05-17T13:10:28.082Z,3.15
2023-05-17T13:12:59.661Z,3.60
2023-05-17T13:15:29.995Z,3.60
2023-05-17T13:17:57.326Z,3.40
2023-05-17T13:20:24.818Z,3.42
2023-05-17T13:22:51.996Z,3.72
2023-05-17T13:25:19.372Z,3.60
2023-05-17T13:27:48.906Z,3.47
2023-05-17T13:30:16.872Z,3.40
2023-05-17T13:32:44.709Z,3.42
2023-05-17T13:35:12.127Z,3.42
2023-05-17T13:37:39.341Z,4.05
2023-05-17T13:40:07.172Z,3.40
2023-05-17T13:42:34.748Z,3.40
2023-05-17T13:45:01.988Z,3.45
2023-05-17T13:47:30.289Z,3.78
2023-05-17T13:49:57.617Z,3.83
2023-05-17T13:52:25.318Z,3.60
2023-05-17T13:54:52.543Z,3.38
2023-05-17T13:57:19.788Z,3.65
2023-05-17T13:59:46.953Z,3.47
2023-05-17T14:02:14.272Z,2.92
2023-05-17T14:04:41.544Z,3.70
2023-05-17T14:07:08.804Z,3.53
2023-05-17T14:09:36.884Z,3.38
2023-05-17T14:12:04.529Z,3.55
2023-05-17T14:14:32.001Z,2.95
2023-05-17T14:16:59.431Z,3.38
2023-05-17T14:19:26.734Z,3.38
2023-05-17T14:21:54.054Z,2.72
2023-05-17T14:24:21.302Z,3.20
2023-05-17T14:26:48.824Z,3.45
2023-05-17T14:29:16.616Z,2.75
2023-05-17T14:31:43.856Z,3.03
2023-05-17T14:34:11.184Z,3.15
2023-05-17T14:36:39.367Z,3.30
2023-05-17T14:39:06.590Z,3.40
2023-05-17T14:41:34.078Z,3.72
2023-05-17T14:44:01.347Z,3.03
2023-05-17T14:46:28.539Z,3.20
2023-05-17T14:48:56.548Z,3.22
2023-05-17T14:51:25.059Z,4.10
2023-05-17T14:53:53.030Z,6.25
2023-05-17T14:56:20.230Z,9.48
2023-05-17T14:58:47.464Z,23.08
2023-05-17T15:01:15.350Z,3.40
2023-05-17T15:03:42.667Z,3.30
2023-05-17T15:06:11.893Z,3.42
2023-05-17T15:08:39.485Z,3.83
2023-05-17T15:11:06.850Z,2.88
2023-05-17T15:13:34.106Z,3.65
2023-05-17T15:16:02.620Z,3.72
2023-05-17T15:18:29.897Z,3.50
2023-05-17T15:20:57.112Z,3.47
2023-05-17T15:23:24.336Z,3.40
2023-05-17T15:25:51.530Z,3.95
2023-05-17T15:28:20.844Z,3.38
2023-05-17T15:30:48.279Z,4.18
2023-05-17T15:33:15.705Z,3.60
2023-05-17T15:35:44.556Z,3.38
2023-05-17T15:38:12.118Z,3.70
2023-05-17T15:40:39.288Z,4.03
2023-05-17T15:43:06.601Z,4.30
2023-05-17T15:45:33.974Z,4.47
2023-05-17T15:48:02.163Z,3.28
2023-05-17T15:50:29.492Z,3.60
2023-05-17T15:52:56.680Z,4.15
2023-05-17T15:55:24.169Z,4.00
2023-05-17T15:57:51.441Z,3.50
2023-05-17T16:00:18.762Z,3.30
2023-05-17T16:02:46.026Z,3.65
2023-05-17T16:05:13.262Z,3.58
2023-05-17T16:07:40.480Z,4.47
2023-05-17T16:10:08.102Z,3.63
2023-05-17T16:12:35.978Z,3.25
2023-05-17T16:15:03.273Z,3.45
2023-05-17T16:17:30.730Z,4.45
2023-05-17T16:19:58.222Z,3.92
2023-05-17T16:22:25.686Z,3.75
2023-05-17T16:24:56.995Z,4.47
2023-05-17T16:27:24.245Z,4.40
2023-05-17T16:29:51.516Z,3.25
2023-05-17T16:32:18.883Z,3.47
2023-05-17T16:34:46.122Z,4.20
2023-05-17T16:37:13.288Z,3.63
2023-05-17T16:39:40.656Z,3.00
2023-05-17T16:42:07.903Z,3.08
2023-05-17T16:44:35.133Z,3.45
2023-05-17T16:47:04.499Z,3.30
2023-05-17T16:49:31.679Z,4.28
2023-05-17T16:51:59.579Z,4.50
2023-05-17T16:54:28.212Z,4.68
2023-05-17T16:56:55.770Z,3.22
2023-05-17T16:59:22.957Z,3.45
2023-05-17T17:01:50.264Z,3.17
2023-05-17T17:04:17.591Z,3.35
2023-05-17T17:06:44.980Z,3.05
2023-05-17T17:09:12.293Z,3.35
2023-05-17T17:11:39.568Z,3.45
2023-05-17T17:14:07.534Z,3.03
2023-05-17T17:16:34.870Z,3.22
2023-05-17T17:19:02.259Z,3.30
2023-05-17T17:21:30.143Z,4.25
2023-05-17T17:23:57.377Z,3.30
2023-05-17T17:26:24.578Z,3.45
2023-05-17T17:28:51.719Z,3.40
2023-05-17T17:31:18.924Z,3.28
2023-05-17T17:33:46.196Z,3.67
2023-05-17T17:36:13.354Z,3.45
2023-05-17T17:38:40.587Z,3.90
2023-05-17T17:41:07.774Z,3.75
2023-05-17T17:43:34.965Z,4.05
2023-05-17T17:46:02.288Z,4.25
2023-05-17T17:48:29.529Z,4.15
2023-05-17T17:50:58.026Z,3.50
2023-05-17T17:53:25.406Z,3.55
2023-05-17T17:55:52.599Z,3.50
2023-05-17T17:58:19.783Z,3.92
2023-05-17T18:00:46.953Z,4.00
2023-05-17T18:03:14.251Z,3.97
2023-05-17T18:05:41.492Z,3.90
2023-05-17T18:08:08.716Z,3.92
2023-05-17T18:10:36.003Z,3.95
2023-05-17T18:13:03.252Z,4.05
2023-05-17T18:15:30.554Z,3.78
2023-05-17T18:17:57.996Z,3.25
2023-05-17T18:20:26.378Z,3.65
2023-05-17T18:22:53.656Z,4.38
2023-05-17T18:25:22.384Z,4.43
2023-05-17T18:27:49.559Z,3.67
2023-05-17T18:30:18.577Z,4.70
2023-05-17T18:32:46.191Z,5.53
2023-05-17T18:35:13.512Z,4.13
2023-05-17T18:37:40.685Z,4.32
2023-05-17T18:40:08.184Z,4.97
2023-05-17T18:42:35.580Z,4.85
2023-05-17T18:45:03.017Z,5.32
2023-05-17T18:47:30.497Z,6.75
2023-05-17T18:49:57.882Z,4.18
2023-05-17T18:52:25.096Z,5.60
2023-05-17T18:54:52.255Z,4.82
2023-05-17T18:57:19.469Z,3.70
2023-05-17T18:59:46.682Z,3.50
2023-05-17T19:02:13.907Z,4.10
2023-05-17T19:04:41.189Z,4.03
2023-05-17T19:07:08.434Z,4.13
2023-05-17T19:09:35.679Z,4.03
2023-05-17T19:12:02.986Z,3.30
2023-05-17T19:14:32.065Z,3.72
2023-05-17T19:16:59.798Z,4.13
2023-05-17T19:19:27.255Z,4.35
2023-05-17T19:21:54.465Z,4.30
2023-05-17T19:24:21.610Z,4.80
2023-05-17T19:26:48.896Z,4.18
2023-05-17T19:29:16.060Z,4.30
2023-05-17T19:31:43.384Z,5.70
2023-05-17T19:34:10.746Z,5.13
2023-05-17T19:36:38.079Z,7.15
2023-05-17T19:39:05.418Z,5.95
2023-05-17T19:41:32.716Z,6.38
2023-05-17T19:43:59.908Z,6.45
2023-05-17T19:46:27.250Z,5.93
2023-05-17T19:48:55.701Z,5.53
2023-05-17T19:51:23.281Z,5.80
2023-05-17T19:53:53.313Z,6.95
2023-05-17T19:56:24.164Z,6.15
2023-05-17T19:58:52.360Z,5.78
2023-05-17T20:01:19.972Z,6.18
2023-05-17T20:03:47.352Z,5.80
2023-05-17T20:06:15.032Z,6.15
2023-05-17T20:08:42.501Z,6.45
2023-05-17T20:11:09.901Z,5.65
2023-05-17T20:13:40.330Z,5.88
2023-05-17T20:16:14.702Z,5.30
2023-05-17T20:18:45.942Z,4.90
2023-05-17T20:21:19.664Z,4.70
2023-05-17T20:23:47.387Z,4.80
2023-05-17T20:26:25.440Z,4.72
2023-05-17T20:28:52.997Z,4.53
2023-05-17T20:31:20.463Z,4.72
2023-05-17T20:33:47.743Z,4.88
2023-05-17T20:36:14.979Z,5.13
2023-05-17T20:38:42.922Z,4.57
2023-05-17T20:41:11.032Z,4.50
2023-05-17T20:43:38.242Z,5.00
2023-05-17T20:46:09.477Z,6.00
2023-05-17T20:48:37.000Z,5.82
2023-05-17T20:51:04.260Z,8.48
2023-05-17T20:53:31.618Z,8.25
2023-05-17T20:55:59.490Z,7.70
2023-05-17T20:58:29.121Z,8.50
2023-05-17T21:00:57.042Z,8.43
2023-05-17T21:03:28.028Z,8.23
2023-05-17T21:05:55.849Z,7.90
2023-05-17T21:08:23.100Z,10.85
2023-05-17T21:10:50.766Z,11.40
2023-05-17T21:13:18.064Z,9.82
2023-05-17T21:15:45.439Z,13.05
2023-05-17T21:18:12.804Z,13.43
2023-05-17T21:20:40.046Z,10.13
2023-05-17T21:23:07.401Z,8.30
2023-05-17T21:25:35.121Z,6.60
2023-05-17T21:28:02.348Z,6.28
2023-05-17T21:30:29.894Z,6.15
2023-05-17T21:32:57.332Z,10.88
2023-05-17T21:35:24.580Z,13.90
2023-05-17T21:37:52.042Z,11.65
2023-05-17T21:40:19.230Z,10.73
2023-05-17T21:42:46.517Z,11.50
2023-05-17T21:45:14.767Z,8.90
2023-05-17T21:47:42.201Z,9.02
2023-05-17T21:50:09.689Z,9.73
2023-05-17T21:52:37.183Z,15.50
2023-05-17T21:55:04.525Z,11.43
2023-05-17T21:57:36.036Z,8.48
2023-05-17T22:00:04.586Z,5.80
2023-05-17T22:02:31.866Z,5.35
2023-05-17T22:04:59.195Z,5.53
2023-05-17T22:07:26.424Z,6.68
2023-05-17T22:09:54.266Z,7.03
2023-05-17T22:12:27.781Z,6.70
2023-05-17T22:14:56.087Z,5.90
2023-05-17T22:17:35.110Z,5.78
2023-05-17T22:20:11.610Z,6.97
2023-05-17T22:22:38.950Z,7.95
2023-05-17T22:25:06.895Z,13.00
2023-05-17T22:27:34.142Z,8.55
2023-05-17T22:30:01.473Z,14.90
2023-05-17T22:32:28.695Z,8.48
2023-05-17T22:34:56.353Z,16.17
2023-05-17T22:37:23.759Z,13.40
2023-05-17T22:39:51.055Z,15.27
2023-05-17T22:42:18.392Z,12.52
2023-05-17T22:44:45.691Z,10.40
2023-05-17T22:47:14.878Z,9.25
2023-05-17T22:49:42.567Z,7.45
2023-05-17T22:52:11.161Z,5.70
2023-05-17T22:54:38.824Z,5.10
2023-05-17T22:57:06.431Z,4.95
2023-05-17T22:59:33.688Z,5.10
2023-05-17T23:02:01.801Z,5.15
2023-05-17T23:04:30.079Z,5.20
2023-05-17T23:07:04.008Z,4.68
2023-05-17T23:09:33.487Z,4.97
2023-05-17T23:12:05.737Z,5.38
2023-05-17T23:14:34.170Z,5.65
2023-05-17T23:17:02.250Z,4.95
2023-05-17T23:19:30.204Z,5.28
2023-05-17T23:21:57.665Z,4.68
2023-05-17T23:24:25.936Z,4.95
2023-05-17T23:26:53.463Z,5.20
2023-05-17T23:29:20.616Z,5.03
2023-05-17T23:31:48.621Z,5.10
2023-05-17T23:34:15.856Z,5.20
2023-05-17T23:36:43.127Z,4.57
2023-05-17T23:39:10.872Z,5.32
2023-05-17T23:41:38.089Z,4.72
2023-05-17T23:44:05.725Z,4.90
2023-05-17T23:46:33.105Z,5.10
2023-05-17T23:49:02.184Z,4.38
2023-05-17T23:51:29.519Z,4.20
2023-05-17T23:53:56.863Z,4.40
2023-05-17T23:56:24.101Z,4.32
2023-05-17T23:58:51.254Z,4.53
